Time;durP1;ratioP1;P1;durP2;ratioP2;P2;SDS_P1;SDS_P2;PMS_P1;PMS_P2;Temp;Humidity;BMP_temperature;BMP_pressure;BME280_temperature;BME280_humidity;BME280_pressure;Samples;Min_cycle;Max_cycle;Signal;HPM_P1;HPM_P2
2022/04/19 00:00:35;;;;;;;7.18;3.13;;;;;;;6.86;100.00;100189.19;5036125;28;20096;-69
2022/04/19 00:03:20;;;;;;;3.78;2.60;;;;;;;6.84;100.00;100185.81;5035943;28;20404;-69
2022/04/19 00:06:04;;;;;;;4.50;3.10;;;;;;;6.81;100.00;100194.88;5035701;28;20048;-69
2022/04/19 00:08:51;;;;;;;4.15;2.92;;;;;;;6.76;100.00;100180.31;5021010;28;20500;-69
2022/04/19 00:11:36;;;;;;;5.25;2.88;;;;;;;6.74;100.00;100185.72;5035616;28;20095;-69
2022/04/19 00:14:20;;;;;;;5.00;3.03;;;;;;;6.72;100.00;100184.13;5035492;28;20144;-69
2022/04/19 00:17:05;;;;;;;4.75;3.58;;;;;;;6.69;100.00;100176.44;5035528;28;20178;-69
2022/04/19 00:19:49;;;;;;;6.22;3.70;;;;;;;6.68;100.00;100180.06;5035988;28;20172;-69
2022/04/19 00:22:33;;;;;;;6.78;3.88;;;;;;;6.68;100.00;100162.34;5035246;28;20091;-69
2022/04/19 00:25:17;;;;;;;4.68;3.30;;;;;;;6.70;100.00;100178.97;5020380;28;20068;-69
2022/04/19 00:28:01;;;;;;;6.22;3.20;;;;;;;6.68;100.00;100175.59;5020636;28;20052;-69
2022/04/19 00:30:47;;;;;;;4.38;3.33;;;;;;;6.66;100.00;100174.88;5020547;28;20140;-69
2022/04/19 00:33:31;;;;;;;4.95;3.00;;;;;;;6.64;100.00;100174.16;5035074;28;20180;-69
2022/04/19 00:36:14;;;;;;;5.75;3.55;;;;;;;6.58;100.00;100171.16;5020158;28;20060;-69
2022/04/19 00:39:00;;;;;;;6.47;3.72;;;;;;;6.57;100.00;100172.13;5035421;28;20088;-69
2022/04/19 00:41:44;;;;;;;8.80;3.38;;;;;;;6.57;100.00;100167.66;5035335;28;20115;-69
2022/04/19 00:44:28;;;;;;;6.00;3.55;;;;;;;6.48;100.00;100165.72;5035458;28;20053;-69
2022/04/19 00:47:14;;;;;;;4.40;3.20;;;;;;;6.39;100.00;100155.88;5020274;28;20048;-69
2022/04/19 00:50:02;;;;;;;4.55;3.20;;;;;;;6.37;100.00;100159.63;5035165;28;20470;-69
2022/04/19 00:52:46;;;;;;;4.05;3.05;;;;;;;6.38;100.00;100150.72;5020296;28;20099;-69
2022/04/19 00:55:31;;;;;;;6.32;3.80;;;;;;;6.30;100.00;100155.75;5020067;28;20052;-69
2022/04/19 00:58:15;;;;;;;4.35;3.20;;;;;;;6.40;100.00;100154.06;5019754;28;20138;-69
2022/04/19 01:01:00;;;;;;;6.70;3.28;;;;;;;6.30;100.00;100148.66;5019712;28;20523;-68
2022/04/19 01:03:44;;;;;;;4.15;3.10;;;;;;;6.21;100.00;100144.09;5034564;28;20044;-69
2022/04/19 01:06:29;;;;;;;3.50;3.13;;;;;;;6.23;100.00;100144.81;5019892;28;20128;-69
2022/04/19 01:09:13;;;;;;;6.03;3.42;;;;;;;6.22;100.00;100147.56;5019806;28;20103;-69
2022/04/19 01:15:06;;;;;;;4.47;3.20;;;;;;;6.15;100.00;100138.44;5022484;28;20059;-69
2022/04/19 01:17:50;;;;;;;4.90;3.33;;;;;;;6.14;100.00;100142.03;5019649;28;20048;-69
2022/04/19 01:20:36;;;;;;;7.00;3.33;;;;;;;5.98;100.00;100142.38;5019367;28;20099;-69
2022/04/19 01:23:20;;;;;;;4.78;3.60;;;;;;;5.78;100.00;100140.41;5035346;28;20079;-69
2022/04/19 01:26:04;;;;;;;4.90;3.60;;;;;;;5.73;100.00;100141.72;5019590;28;20098;-69
2022/04/19 01:28:47;;;;;;;5.07;4.03;;;;;;;5.65;100.00;100136.97;5005644;28;20052;-69
2022/04/19 01:31:31;;;;;;;5.63;3.70;;;;;;;5.57;100.00;100134.09;5034442;28;20057;-69
2022/04/19 01:34:15;;;;;;;4.72;3.35;;;;;;;5.52;100.00;100133.59;5034329;28;20091;-69
2022/04/19 01:36:59;;;;;;;5.65;3.60;;;;;;;5.52;100.00;100130.94;5034319;28;20056;-69
2022/04/19 01:43:03;;;;;;;4.43;3.03;;;;;;;5.60;100.00;100136.50;5033799;28;20098;-69
2022/04/19 01:45:48;;;;;;;5.25;3.40;;;;;;;5.59;100.00;100132.19;5019234;28;20048;-69
2022/04/19 01:48:32;;;;;;;5.30;3.85;;;;;;;5.62;100.00;100134.56;5018964;28;20052;-69
2022/04/19 01:51:17;;;;;;;5.43;3.42;;;;;;;5.69;100.00;100135.81;5033960;28;20055;-69
2022/04/19 01:54:02;;;;;;;4.75;3.78;;;;;;;5.70;100.00;100132.19;5033584;28;20091;-69
2022/04/19 01:56:46;;;;;;;4.35;3.30;;;;;;;5.67;100.00;100132.44;5033974;28;20190;-69
2022/04/19 01:59:30;;;;;;;6.38;4.07;;;;;;;5.64;100.00;100132.66;5033908;28;20048;-69
2022/04/19 02:02:14;;;;;;;5.63;4.15;;;;;;;5.57;100.00;100128.81;5033536;28;20117;-69
2022/04/19 02:04:58;;;;;;;5.30;4.00;;;;;;;5.54;100.00;100131.66;5018930;28;20556;-69
2022/04/19 02:07:43;;;;;;;6.53;4.00;;;;;;;5.51;100.00;100128.41;5018549;28;20091;-69
2022/04/19 02:10:27;;;;;;;4.78;3.70;;;;;;;5.42;100.00;100137.88;5018839;28;20044;-69
2022/04/19 02:13:13;;;;;;;6.50;3.75;;;;;;;5.45;100.00;100121.78;5018504;28;20152;-69
2022/04/19 02:16:00;;;;;;;7.28;3.67;;;;;;;5.51;100.00;100126.63;5018115;28;20052;-69
2022/04/19 02:18:44;;;;;;;5.53;4.25;;;;;;;5.58;100.00;100121.72;5018835;28;20107;-69
2022/04/19 02:21:30;;;;;;;7.30;3.60;;;;;;;5.62;100.00;100124.00;5033602;28;20056;-69
2022/04/19 02:24:13;;;;;;;5.35;3.70;;;;;;;5.61;100.00;100122.31;5033101;28;20125;-70
2022/04/19 02:26:57;;;;;;;10.43;4.05;;;;;;;5.64;100.00;100123.91;5018635;28;20052;-69
2022/04/19 02:29:41;;;;;;;4.88;3.70;;;;;;;5.64;100.00;100121.25;5033541;28;20064;-69
2022/04/19 02:32:25;;;;;;;4.78;3.70;;;;;;;5.62;100.00;100118.72;5033347;28;20041;-69
2022/04/19 02:35:09;;;;;;;9.27;3.65;;;;;;;5.60;100.00;100120.63;5018241;28;20111;-68
2022/04/19 02:37:55;;;;;;;5.03;3.67;;;;;;;5.54;100.00;100123.72;5033446;28;20470;-69
2022/04/19 02:40:39;;;;;;;4.90;3.80;;;;;;;5.53;100.00;100114.13;5018171;28;20505;-69
2022/04/19 02:43:23;;;;;;;5.30;4.10;;;;;;;5.54;100.00;100110.50;5018377;28;20044;-69
2022/04/19 02:46:07;;;;;;;5.43;4.20;;;;;;;5.46;100.00;100107.59;5018357;28;20125;-69
2022/04/19 02:48:51;;;;;;;6.65;4.22;;;;;;;5.38;100.00;100120.59;5033075;28;20056;-69
2022/04/19 02:51:35;;;;;;;7.00;3.63;;;;;;;5.34;100.00;100111.19;5033244;28;20056;-69
2022/04/19 02:54:18;;;;;;;6.40;4.10;;;;;;;5.32;100.00;100114.91;5018211;28;20410;-69
2022/04/19 02:57:04;;;;;;;6.35;4.05;;;;;;;5.36;100.00;100109.25;5017999;28;20460;-69
2022/04/19 02:59:48;;;;;;;6.18;3.95;;;;;;;5.52;100.00;100112.44;5004288;28;20460;-69
2022/04/19 03:02:33;;;;;;;6.43;4.43;;;;;;;5.59;100.00;100107.53;5017945;28;20129;-69
2022/04/19 03:05:18;;;;;;;5.90;3.63;;;;;;;5.50;100.00;100109.06;5018417;28;20091;-69
2022/04/19 03:08:02;;;;;;;6.30;3.85;;;;;;;5.41;100.00;100104.47;5018121;28;20187;-69
2022/04/19 03:10:46;;;;;;;7.40;4.15;;;;;;;5.36;100.00;100106.59;5033203;28;20061;-69
2022/04/19 03:13:32;;;;;;;6.57;4.25;;;;;;;5.31;100.00;100108.78;5032996;28;20094;-69
2022/04/19 03:16:15;;;;;;;6.07;4.05;;;;;;;5.36;100.00;100106.59;5033079;28;20479;-69
2022/04/19 03:18:59;;;;;;;5.35;4.60;;;;;;;5.42;100.00;100114.09;5017853;28;20052;-68
2022/04/19 03:21:43;;;;;;;5.00;3.92;;;;;;;5.47;100.00;100109.31;5032799;28;20053;-69
2022/04/19 03:27:42;;;;;;;4.40;3.70;;;;;;;5.47;100.00;100108.47;5021510;28;20048;-69
2022/04/19 03:30:26;;;;;;;7.30;4.18;;;;;;;5.35;100.00;100110.22;5036693;28;20095;-69
2022/04/19 03:33:10;;;;;;;6.25;4.60;;;;;;;5.22;100.00;100114.75;5021691;28;20047;-69
2022/04/19 03:35:56;;;;;;;5.65;3.90;;;;;;;5.10;100.00;100112.16;5036441;28;20060;-69
2022/04/19 03:38:40;;;;;;;5.65;4.10;;;;;;;5.04;100.00;100116.09;5036771;28;20052;-69
2022/04/19 03:41:24;;;;;;;6.68;4.43;;;;;;;4.93;100.00;100116.06;5036544;28;20171;-69
2022/04/19 03:44:08;;;;;;;4.90;3.97;;;;;;;4.95;100.00;100111.50;5021061;28;20048;-70
2022/04/19 03:47:08;;;;;;;7.30;4.38;;;;;;;5.00;100.00;100109.38;5021164;28;20508;-68
2022/04/19 03:49:52;;;;;;;6.68;4.03;;;;;;;4.97;100.00;100110.56;5036085;28;20095;-69
2022/04/19 03:52:36;;;;;;;10.00;4.60;;;;;;;4.93;100.00;100109.09;5021180;28;20048;-69
2022/04/19 03:55:20;;;;;;;8.85;4.85;;;;;;;4.84;100.00;100117.69;5020948;28;20111;-69
2022/04/19 03:58:04;;;;;;;9.18;4.50;;;;;;;4.65;100.00;100109.41;5021155;28;20052;-69
2022/04/19 04:00:49;;;;;;;6.82;4.80;;;;;;;4.58;100.00;100116.09;5036131;28;20072;-69
2022/04/19 04:03:33;;;;;;;10.48;4.30;;;;;;;4.65;100.00;100117.31;5020920;28;20183;-69
2022/04/19 04:06:18;;;;;;;7.28;4.43;;;;;;;4.67;100.00;100110.16;5020952;28;20091;-69
2022/04/19 04:09:04;;;;;;;5.43;4.10;;;;;;;4.62;100.00;100117.56;5035952;28;20187;-68
2022/04/19 04:11:48;;;;;;;8.35;4.80;;;;;;;4.51;100.00;100125.41;5021004;28;20455;-69
2022/04/19 04:14:32;;;;;;;6.88;4.65;;;;;;;4.21;100.00;100122.31;5035611;28;20480;-69
2022/04/19 04:17:18;;;;;;;7.15;4.53;;;;;;;4.24;100.00;100111.53;5006766;28;20133;-69
2022/04/19 04:20:02;;;;;;;9.07;4.80;;;;;;;-139.48;100.00;61774.03;5006687;28;20132;-69
2022/04/19 04:22:46;;;;;;;7.30;4.72;;;;;;;-139.48;100.00;61774.03;5020617;28;20107;-68
2022/04/19 04:25:31;;;;;;;7.18;4.85;;;;;;;-139.48;100.00;61774.03;5035408;28;20044;-68
2022/04/19 04:28:15;;;;;;;9.07;4.60;;;;;;;-139.48;100.00;61774.03;5020322;28;20122;-69
2022/04/19 04:30:59;;;;;;;7.07;4.85;;;;;;;-139.48;100.00;61774.03;5035576;28;20500;-69
2022/04/19 04:33:43;;;;;;;7.28;5.13;;;;;;;-139.48;100.00;61774.03;5020453;28;20508;-69
2022/04/19 04:36:27;;;;;;;7.03;5.00;;;;;;;-139.48;100.00;61774.03;5020180;28;20056;-69
2022/04/19 04:39:11;;;;;;;8.07;4.70;;;;;;;-139.48;100.00;61774.03;5019306;28;20103;-68
2022/04/19 04:41:55;;;;;;;9.38;5.20;;;;;;;-139.48;100.00;61774.03;5020593;28;20052;-69
2022/04/19 04:44:39;;;;;;;7.03;5.15;;;;;;;-139.48;100.00;61774.03;5020320;28;20166;-69
2022/04/19 04:50:26;;;;;;;7.85;5.38;;;;;;;-139.48;100.00;61774.03;5034902;28;20056;-69
2022/04/19 04:53:09;;;;;;;7.40;4.65;;;;;;;-139.48;100.00;61774.03;5034729;28;20509;-69
2022/04/19 04:55:53;;;;;;;7.60;4.50;;;;;;;-139.48;100.00;61774.03;5035093;28;20103;-69
2022/04/19 04:58:37;;;;;;;7.43;4.53;;;;;;;-139.48;100.00;61774.03;5020008;28;20068;-69
2022/04/19 05:01:21;;;;;;;9.93;5.00;;;;;;;-139.48;100.00;61774.03;5019982;28;20064;-68
2022/04/19 05:04:05;;;;;;;7.85;4.80;;;;;;;-139.48;100.00;61774.03;5034703;28;20048;-69
2022/04/19 05:06:49;;;;;;;7.00;4.22;;;;;;;-139.48;100.00;61774.03;5019880;28;20072;-68
2022/04/19 05:09:33;;;;;;;7.07;4.25;;;;;;;-139.48;100.00;61774.03;5034871;28;20056;-69
2022/04/19 05:12:16;;;;;;;6.57;4.93;;;;;;;-139.48;100.00;61774.03;5005788;28;20048;-69
2022/04/19 05:15:01;;;;;;;7.68;4.82;;;;;;;-139.48;100.00;61774.03;5034484;28;20094;-69
2022/04/19 05:17:45;;;;;;;7.38;4.68;;;;;;;-139.48;100.00;61774.03;5034723;28;20164;-68
2022/04/19 05:20:29;;;;;;;6.82;4.57;;;;;;;-139.48;100.00;61774.03;5005677;28;20104;-69
2022/04/19 05:23:12;;;;;;;6.45;4.85;;;;;;;-139.48;100.00;61774.03;5034524;28;20056;-68
2022/04/19 05:25:56;;;;;;;7.53;4.95;;;;;;;-139.48;100.00;61774.03;5019543;28;20512;-68
2022/04/19 05:28:40;;;;;;;7.63;5.15;;;;;;;-139.48;100.00;61774.03;5034432;28;20051;-69
2022/04/19 05:31:24;;;;;;;8.82;4.88;;;;;;;-139.48;100.00;61774.03;5019175;28;20179;-68
2022/04/19 05:34:08;;;;;;;6.60;4.65;;;;;;;-139.48;100.00;61774.03;5020077;28;20401;-70
2022/04/19 05:36:52;;;;;;;6.60;4.82;;;;;;;-139.48;100.00;61774.03;5034304;28;20056;-69
2022/04/19 05:39:36;;;;;;;6.72;4.90;;;;;;;-139.48;100.00;61774.03;5034262;28;20099;-69
2022/04/19 05:42:21;;;;;;;8.80;5.22;;;;;;;-139.48;100.00;61774.03;5019207;28;20460;-69
2022/04/19 05:45:05;;;;;;;9.00;5.18;;;;;;;-139.48;100.00;61774.03;5018935;28;20063;-69
2022/04/19 05:47:49;;;;;;;13.00;4.85;;;;;;;-139.48;100.00;61774.03;5033965;28;20052;-69
2022/04/19 05:50:33;;;;;;;6.05;4.45;;;;;;;-139.48;100.00;61774.03;5019346;28;20052;-69
2022/04/19 05:53:18;;;;;;;7.75;5.10;;;;;;;-139.48;100.00;61774.03;5018929;28;20567;-69
2022/04/19 05:56:02;;;;;;;5.45;4.55;;;;;;;-139.48;100.00;61774.03;5018708;28;20055;-69
2022/04/19 05:58:45;;;;;;;7.13;4.70;;;;;;;-139.48;100.00;61774.03;5005099;28;20056;-69
2022/04/19 06:04:51;;;;;;;12.80;5.95;;;;;;;-139.48;100.00;61774.03;5034180;28;20095;-69
2022/04/19 06:07:43;;;;;;;7.57;5.55;;;;;;;-139.48;100.00;61774.03;5021298;28;20630;-69
2022/04/19 06:10:27;;;;;;;10.98;6.00;;;;;;;-139.48;100.00;61774.03;5033771;28;20111;-69
2022/04/19 06:13:11;;;;;;;13.77;7.03;;;;;;;-139.48;100.00;61774.03;5018698;28;20044;-69
2022/04/19 06:15:55;;;;;;;13.07;6.35;;;;;;;-139.48;100.00;61774.03;5004634;28;20059;-69
2022/04/19 06:18:39;;;;;;;7.18;5.40;;;;;;;-139.48;100.00;61774.03;5018732;28;20111;-69
2022/04/19 06:21:23;;;;;;;7.78;5.10;;;;;;;-139.48;100.00;61774.03;5033347;28;20052;-69
2022/04/19 06:24:08;;;;;;;9.50;4.40;;;;;;;-139.48;100.00;61774.03;5033101;28;20040;-69
2022/04/19 06:26:52;;;;;;;7.70;4.60;;;;;;;-139.48;100.00;61774.03;5033573;28;20052;-69
2022/04/19 06:29:36;;;;;;;5.78;4.65;;;;;;;-139.48;100.00;61774.03;5033273;28;20119;-69
2022/04/19 06:32:20;;;;;;;10.05;4.55;;;;;;;-139.48;100.00;61774.03;5033244;28;20103;-69
2022/04/19 06:35:04;;;;;;;6.43;4.18;;;;;;;-139.48;100.00;61774.03;5033468;28;20053;-69
2022/04/19 06:37:47;;;;;;;6.03;4.25;;;;;;;-139.48;100.00;61774.03;5033414;28;20504;-69
2022/04/19 06:40:31;;;;;;;7.68;4.45;;;;;;;-139.48;100.00;61774.03;5033123;28;20563;-68
2022/04/19 06:43:15;;;;;;;8.68;4.97;;;;;;;-139.48;100.00;61774.03;5033204;28;20043;-69
2022/04/19 06:45:59;;;;;;;10.32;4.75;;;;;;;-139.48;100.00;61774.03;5018192;28;20056;-69
2022/04/19 06:48:43;;;;;;;5.93;4.40;;;;;;;-139.48;100.00;61774.03;5033103;28;20098;-69
2022/04/19 06:51:28;;;;;;;5.55;4.43;;;;;;;-139.48;100.00;61774.03;5018381;28;20056;-69
2022/04/19 06:54:12;;;;;;;4.90;3.75;;;;;;;-139.48;100.00;61774.03;5018158;28;20545;-69
2022/04/19 06:56:56;;;;;;;4.88;3.58;;;;;;;-139.48;100.00;61774.03;5018240;28;20072;-69
2022/04/19 06:59:40;;;;;;;7.30;4.00;;;;;;;-139.48;100.00;61774.03;5018274;28;20133;-69
2022/04/19 07:02:24;;;;;;;6.80;4.30;;;;;;;-139.48;100.00;61774.03;5033935;28;20091;-70
2022/04/19 07:05:08;;;;;;;5.93;4.07;;;;;;;-139.48;100.00;61774.03;5037203;28;20087;-69
2022/04/19 07:07:51;;;;;;;9.65;4.18;;;;;;;-139.48;100.00;61774.03;5022137;28;20053;-70
2022/04/19 07:10:35;;;;;;;6.50;4.55;;;;;;;-139.48;100.00;61774.03;5021815;28;20080;-69
2022/04/19 07:13:19;;;;;;;6.30;3.90;;;;;;;-139.48;100.00;61774.03;5021593;28;20416;-69
2022/04/19 07:16:04;;;;;;;8.07;4.40;;;;;;;-139.48;100.00;61774.03;5021715;28;20068;-69
2022/04/19 07:18:48;;;;;;;9.50;4.35;;;;;;;-139.48;100.00;61774.03;5036615;28;20404;-69
2022/04/19 07:27:38;;;;;;;8.68;4.97;;;;;;;-139.48;100.00;61774.03;5024180;28;20045;-70
2022/04/19 07:30:22;;;;;;;6.40;4.32;;;;;;;-139.48;100.00;61774.03;5036690;28;20048;-70
2022/04/19 07:33:07;;;;;;;5.55;4.38;;;;;;;-139.48;100.00;61774.03;5036359;28;20417;-69
2022/04/19 07:35:53;;;;;;;7.70;4.50;;;;;;;-139.48;100.00;61774.03;5036222;28;20079;-69
2022/04/19 07:38:36;;;;;;;6.10;3.70;;;;;;;-139.48;100.00;61774.03;5021628;28;20084;-69
2022/04/19 07:41:21;;;;;;;6.72;4.53;;;;;;;-139.48;100.00;61774.03;5021195;28;20052;-69
2022/04/19 07:44:08;;;;;;;8.30;4.43;;;;;;;-139.48;100.00;61774.03;5036101;28;20102;-69
2022/04/19 07:46:52;;;;;;;8.00;4.40;;;;;;;-139.48;100.00;61774.03;5021544;28;20096;-69
2022/04/19 07:49:36;;;;;;;7.97;4.50;;;;;;;-139.48;100.00;61774.03;5036026;28;20432;-69
2022/04/19 07:52:20;;;;;;;9.40;3.83;;;;;;;-139.48;100.00;61774.03;5021321;28;20070;-68
2022/04/19 07:55:04;;;;;;;9.63;4.30;;;;;;;-139.48;100.00;61774.03;5035932;28;20159;-69
2022/04/19 07:57:48;;;;;;;8.70;4.18;;;;;;;-139.48;100.00;61774.03;5035847;28;20515;-69
2022/04/19 08:00:33;;;;;;;6.78;4.10;;;;;;;-139.48;100.00;61774.03;5020938;28;20553;-69
2022/04/19 08:03:16;;;;;;;7.20;4.50;;;;;;;-139.48;100.00;61774.03;5007132;28;20095;-68
2022/04/19 08:06:00;;;;;;;8.30;4.38;;;;;;;-139.48;100.00;61774.03;5035723;28;20615;-70
2022/04/19 08:08:50;;;;;;;7.22;3.75;;;;;;;-139.48;100.00;61774.03;5035822;28;20504;-69
2022/04/19 08:11:35;;;;;;;4.88;3.60;;;;;;;-139.48;100.00;61774.03;5021032;28;20095;-69
2022/04/19 08:14:19;;;;;;;5.47;3.72;;;;;;;-139.48;100.00;61774.03;5034319;28;20124;-69
2022/04/19 08:17:03;;;;;;;;;;;;;;;-139.48;100.00;61774.03;5035915;28;20180;-68
2022/04/19 08:19:48;;;;;;;5.57;4.30;;;;;;;-139.48;100.00;61774.03;5020752;28;20023;-70
2022/04/19 08:22:32;;;;;;;4.75;3.72;;;;;;;-139.48;100.00;61774.03;5020414;28;20635;-69
2022/04/19 08:25:16;;;;;;;8.85;3.80;;;;;;;-139.48;100.00;61774.03;5020638;28;20500;-69
2022/04/19 08:28:00;;;;;;;5.47;3.70;;;;;;;-139.48;100.00;61774.03;5035322;28;20580;-69
2022/04/19 08:30:44;;;;;;;10.05;3.80;;;;;;;-139.48;100.00;61774.03;5020323;28;20072;-69
2022/04/19 08:33:31;;;;;;;5.60;3.65;;;;;;;-139.48;100.00;61774.03;5035508;28;20040;-69
2022/04/19 08:36:15;;;;;;;5.82;4.00;;;;;;;-139.48;100.00;61774.03;5020231;28;20636;-67
2022/04/19 08:38:59;;;;;;;6.53;3.63;;;;;;;-139.48;100.00;61774.03;5035382;28;20049;-66
2022/04/19 08:41:43;;;;;;;6.20;3.85;;;;;;;-139.48;100.00;61774.03;5035361;28;20068;-67
2022/04/19 08:44:27;;;;;;;6.53;3.88;;;;;;;-139.48;100.00;61774.03;5034952;28;20516;-67
2022/04/19 08:47:12;;;;;;;10.40;4.85;;;;;;;-139.48;100.00;61774.03;5006689;28;20052;-67
2022/04/19 08:49:56;;;;;;;5.93;4.00;;;;;;;-139.48;100.00;61774.03;5006451;28;20052;-67
2022/04/19 08:52:40;;;;;;;8.32;4.30;;;;;;;-139.48;100.00;61774.03;5019782;28;20083;-67
2022/04/19 08:58:29;;;;;;;7.82;4.40;;;;;;;-139.48;100.00;61774.03;5022455;28;20183;-67
2022/04/19 09:01:13;;;;;;;6.15;4.53;;;;;;;-139.48;100.00;61774.03;5006019;28;20048;-67
2022/04/19 09:03:57;;;;;;;7.70;4.22;;;;;;;-139.48;100.00;61774.03;5034623;28;20044;-69
2022/04/19 09:06:52;;;;;;;6.20;4.30;;;;;;;-139.48;100.00;61774.03;5034372;28;20048;-69
2022/04/19 09:09:38;;;;;;;6.38;4.10;;;;;;;-139.48;100.00;61774.03;5019645;28;20055;-69
2022/04/19 09:12:22;;;;;;;5.57;3.88;;;;;;;-139.48;100.00;61774.03;5034714;28;20056;-69
2022/04/19 09:15:06;;;;;;;6.13;3.85;;;;;;;-139.48;100.00;61774.03;5034742;28;20401;-70
2022/04/19 09:17:50;;;;;;;6.72;4.60;;;;;;;-139.48;100.00;61774.03;5034255;28;20179;-68
2022/04/19 09:20:34;;;;;;;6.10;4.25;;;;;;;-139.48;100.00;61774.03;5019534;28;20103;-69
2022/04/19 09:23:18;;;;;;;9.88;5.07;;;;;;;-139.48;100.00;61774.03;5019228;28;20056;-70
2022/04/19 09:26:05;;;;;;;6.65;4.55;;;;;;;-139.48;100.00;61774.03;5005252;28;20099;-70
2022/04/19 09:29:24;;;;;;;6.75;4.50;;;;;;;-139.48;100.00;61774.03;5019651;28;20099;-69
2022/04/19 09:32:12;;;;;;;6.15;4.38;;;;;;;-139.48;100.00;61774.03;5019438;28;20092;-69
2022/04/19 09:34:57;;;;;;;7.47;4.60;;;;;;;-139.48;100.00;61774.03;5018732;28;20447;-70
2022/04/19 09:37:47;;;;;;;6.35;4.18;;;;;;;-139.48;100.00;61774.03;5034291;28;20512;-69
2022/04/19 09:40:36;;;;;;;8.00;4.90;;;;;;;-139.48;100.00;61774.03;5034387;28;20095;-70
2022/04/19 09:43:21;;;;;;;6.13;4.20;;;;;;;-139.48;100.00;61774.03;5034104;28;20040;-69
2022/04/19 09:46:06;;;;;;;7.25;4.68;;;;;;;-139.48;100.00;61774.03;5019325;28;20477;-69
2022/04/19 09:48:51;;;;;;;7.47;4.70;;;;;;;-139.48;100.00;61774.03;5034056;28;20145;-69
2022/04/19 09:51:36;;;;;;;8.18;4.45;;;;;;;-139.48;100.00;61774.03;5019189;28;20144;-69
2022/04/19 09:54:23;;;;;;;7.00;4.38;;;;;;;-139.48;100.00;61774.03;5033644;28;20122;-69
2022/04/19 09:57:09;;;;;;;6.63;4.72;;;;;;;-139.48;100.00;61774.03;5033692;28;20052;-69
2022/04/19 09:59:54;;;;;;;6.78;4.22;;;;;;;-139.48;100.00;61774.03;5033709;28;20057;-69
2022/04/19 10:08:46;;;;;;;6.45;4.28;;;;;;;-139.48;100.00;61774.03;5033561;28;20103;-67
2022/04/19 10:11:30;;;;;;;6.15;4.40;;;;;;;-139.48;100.00;61774.03;5004833;28;20501;-69
2022/04/19 10:14:14;;;;;;;5.38;4.07;;;;;;;-139.48;100.00;61774.03;5018332;28;20063;-69
2022/04/19 10:16:59;;;;;;;4.53;4.10;;;;;;;-139.48;100.00;61774.03;5018484;28;20171;-69
2022/04/19 10:19:43;;;;;;;5.68;3.90;;;;;;;-139.48;100.00;61774.03;5018335;28;20084;-69
2022/04/19 10:22:27;;;;;;;5.53;4.43;;;;;;;-139.48;100.00;61774.03;5033015;28;20421;-70
2022/04/19 10:25:13;;;;;;;6.93;4.55;;;;;;;-139.48;100.00;61774.03;5018373;28;20114;-69
2022/04/19 10:28:04;;;;;;;6.10;4.80;;;;;;;-139.48;100.00;61774.03;5019158;28;20099;-70
2022/04/19 10:30:51;;;;;;;6.60;4.65;;;;;;;-139.48;100.00;61774.03;5018541;28;20052;-70
2022/04/19 10:33:39;;;;;;;7.78;4.97;;;;;;;-139.48;100.00;61774.03;5033060;28;20053;-70
2022/04/19 10:36:34;;;;;;;7.30;5.13;;;;;;;-139.48;100.00;61774.03;5018401;28;20052;-69
2022/04/19 10:39:20;;;;;;;5.57;5.00;;;;;;;-139.48;100.00;61774.03;5004383;28;20053;-68
2022/04/19 10:42:05;;;;;;;8.48;5.70;;;;;;;-139.48;100.00;61774.03;5033137;28;20052;-70
2022/04/19 10:44:50;;;;;;;6.03;5.20;;;;;;;-139.48;100.00;61774.03;5018148;28;20048;-68
2022/04/19 10:47:34;;;;;;;7.85;5.75;;;;;;;-139.48;100.00;61774.03;5033123;28;20068;-70
2022/04/19 10:50:34;;;;;;;5.22;4.53;;;;;;;-139.48;100.00;61774.03;5033267;28;20048;-70
2022/04/19 10:53:30;;;;;;;5.93;4.07;;;;;;;-139.48;100.00;61774.03;5033337;28;20098;-70
2022/04/19 10:56:14;;;;;;;7.35;4.97;;;;;;;-139.48;100.00;61774.03;5018363;28;20496;-70
2022/04/19 10:59:21;;;;;;;5.50;4.10;;;;;;;-139.48;100.00;61774.03;5004301;28;20147;-70
2022/04/19 11:02:50;;;;;;;4.38;3.97;;;;;;;-139.48;100.00;61774.03;5033119;28;20168;-70
2022/04/19 11:05:43;;;;;;;5.65;3.67;;;;;;;-139.48;100.00;61774.03;5032936;28;20044;-70
2022/04/19 11:08:27;;;;;;;4.22;3.80;;;;;;;-139.48;100.00;61774.03;5033134;28;20052;-69
2022/04/19 11:11:20;;;;;;;3.85;3.42;;;;;;;-139.48;100.00;61774.03;5032881;28;20087;-69
2022/04/19 11:14:18;;;;;;;5.70;4.70;;;;;;;-139.48;100.00;61774.03;5032773;28;20122;-69
2022/04/19 11:17:41;;;;;;;4.47;4.00;;;;;;;-139.48;100.00;61774.03;5032800;28;20098;-69
2022/04/19 11:20:43;;;;;;;4.22;3.80;;;;;;;-139.48;100.00;61774.03;4920569;29;20055;-69
2022/04/19 11:23:29;;;;;;;4.13;3.75;;;;;;;-139.48;100.00;61774.03;5032596;28;20125;-68
2022/04/19 11:26:34;;;;;;;7.32;3.88;;;;;;;-139.48;100.00;61774.03;5018181;28;20060;-70
2022/04/19 11:29:18;;;;;;;5.78;3.85;;;;;;;-139.48;100.00;61774.03;5032678;28;20424;-70
2022/04/19 11:32:02;;;;;;;3.75;3.45;;;;;;;-139.48;100.00;61774.03;5017684;28;20053;-69
2022/04/19 11:35:01;;;;;;;4.50;4.00;;;;;;;-139.48;100.00;61774.03;5032770;28;20060;-69
2022/04/19 11:37:45;;;;;;;4.93;3.83;;;;;;;-139.48;100.00;61774.03;5018131;28;20091;-69
2022/04/19 11:46:46;;;;;;;4.70;4.00;;;;;;;-139.48;100.00;61774.03;5032762;28;20460;-70
2022/04/19 11:49:35;;;;;;;3.90;3.50;;;;;;;-139.48;100.00;61774.03;5020697;28;20040;-70
2022/04/19 11:52:20;;;;;;;5.85;3.88;;;;;;;-139.48;100.00;61774.03;5007255;28;20106;-70
2022/04/19 11:55:04;;;;;;;4.68;3.97;;;;;;;-139.48;100.00;61774.03;5021389;28;20044;-69
2022/04/19 11:57:48;;;;;;;6.90;4.65;;;;;;;-139.48;100.00;61774.03;5036091;28;20052;-69
2022/04/19 12:00:33;;;;;;;8.15;4.78;;;;;;;-139.48;100.00;61774.03;5020981;28;20401;-69
2022/04/19 12:03:25;;;;;;;7.22;4.45;;;;;;;-139.48;100.00;61774.03;5035618;28;20055;-69
2022/04/19 12:06:11;;;;;;;7.20;4.40;;;;;;;-139.48;100.00;61774.03;5035836;28;20081;-70
2022/04/19 12:08:55;;;;;;;4.88;4.40;;;;;;;-139.48;100.00;61774.03;5020807;28;20047;-70
2022/04/19 12:11:40;;;;;;;4.75;3.95;;;;;;;-139.48;100.00;61774.03;5035993;28;20047;-70
2022/04/19 12:14:31;;;;;;;6.82;4.68;;;;;;;-139.48;100.00;61774.03;5020684;28;20063;-69
2022/04/19 12:17:20;;;;;;;5.07;4.57;;;;;;;-139.48;100.00;61774.03;5020883;28;20049;-70
2022/04/19 12:20:05;;;;;;;6.30;3.95;;;;;;;-139.48;100.00;61774.03;5020926;28;20068;-69
2022/04/19 12:22:48;;;;;;;6.85;4.60;;;;;;;-139.48;100.00;61774.03;5020401;28;20535;-69
2022/04/19 12:25:32;;;;;;;5.68;4.40;;;;;;;-139.48;100.00;61774.03;5020715;28;20099;-70
2022/04/19 12:28:16;;;;;;;5.65;3.70;;;;;;;-139.48;100.00;61774.03;5020389;28;20628;-70
2022/04/19 12:31:00;;;;;;;4.40;3.95;;;;;;;-139.48;100.00;61774.03;5035368;28;20056;-70
2022/04/19 12:33:54;;;;;;;7.63;4.47;;;;;;;-139.48;100.00;61774.03;5020453;28;20041;-69
2022/04/19 12:36:49;;;;;;;8.82;4.68;;;;;;;-139.48;100.00;61774.03;5035207;28;20408;-70
2022/04/19 12:39:33;;;;;;;5.85;4.68;;;;;;;-139.48;100.00;61774.03;5020445;28;20099;-70
2022/04/19 12:42:17;;;;;;;7.88;4.55;;;;;;;-139.48;100.00;61774.03;5006465;28;20122;-70
2022/04/19 12:45:09;;;;;;;4.65;4.20;;;;;;;-139.48;100.00;61774.03;5035631;28;20051;-70
2022/04/19 12:47:57;;;;;;;4.93;4.10;;;;;;;-139.48;100.00;61774.03;5020230;28;20508;-70
2022/04/19 12:50:41;;;;;;;6.75;4.53;;;;;;;-139.48;100.00;61774.03;5034974;28;20120;-70
2022/04/19 12:53:25;;;;;;;8.68;4.80;;;;;;;-139.48;100.00;61774.03;5034889;28;20128;-69
2022/04/19 12:56:37;;;;;;;5.13;4.63;;;;;;;-139.48;100.00;61774.03;5035112;28;20131;-70
2022/04/19 12:59:21;;;;;;;8.07;5.53;;;;;;;-139.48;100.00;61774.03;5034821;28;20546;-70
2022/04/19 13:02:05;;;;;;;4.85;4.35;;;;;;;-139.48;100.00;61774.03;5034548;28;20516;-69
2022/04/19 13:04:50;;;;;;;8.68;5.65;;;;;;;-139.48;100.00;61774.03;5034965;28;20516;-70
2022/04/19 13:13:41;;;;;;;6.57;5.10;;;;;;;-139.48;100.00;61774.03;5034492;28;20040;-69
2022/04/19 13:16:24;;;;;;;5.85;4.82;;;;;;;-139.48;100.00;61774.03;5019478;28;20044;-69
2022/04/19 13:19:08;;;;;;;8.18;5.25;;;;;;;-139.48;100.00;61774.03;5034636;28;20088;-69
2022/04/19 13:21:52;;;;;;;11.35;5.22;;;;;;;-139.48;100.00;61774.03;5002916;28;20498;-69